Monday, December 17, 2018, 9:48 AM GMT
Back to Local

CYPD, Port Hawkesbury

Location: , , Canada Lat: 45.667
Local Time: 9:48 AM GMT ( 9:48 GMT) Lon: -61.383
Time Zone: GMT Elev: 374 ft

Show me the last for .
Show Decoded

2018-12-17 09:00 METAR CYPD 170900Z AUTO 06007KT 9SM OVC016 M03/M04 A2994 RMK PRESFR SLP146 =
2018-12-17 08:00 METAR CYPD 170800Z AUTO 07006KT 9SM OVC018 M04/M04 A2997 RMK SLP158 =
2018-12-17 07:21 METAR CYPD 170721Z AUTO 07006KT 9SM BKN018 BKN220 M04/M05 A3000 RMK SLP165 =
2018-12-17 07:00 METAR CYPD 170700Z AUTO 07006KT 9SM CLR M05/M06 A3000 RMK SLP166 =
2018-12-17 06:00 METAR CYPD 170600Z AUTO 08005KT 040V100 9SM CLR M05/M06 A3005 RMK SLP182 =
2018-12-17 05:00 METAR CYPD 170500Z AUTO 04008KT 9SM CLR M05/M06 A3006 RMK PRESFR SLP187 =
2018-12-17 04:00 METAR CYPD 170400Z AUTO 05006KT 9SM CLR M05/M06 A3011 RMK SLP205 =
2018-12-17 03:00 METAR CYPD 170300Z AUTO 06005KT 9SM CLR RMK T MISG TD MISG DENSITY ALT MISG =
2018-12-17 02:00 METAR CYPD 170200Z AUTO 00000KT 9SM CLR M05/M06 A3016 RMK SLP221 =
2018-12-17 01:00 METAR CYPD 170100Z AUTO VRB02KT 9SM CLR M04/M05 A3016 RMK SLP220 =
2018-12-17 00:00 METAR CYPD 170000Z AUTO VRB02KT 9SM CLR M04/M05 A3016 RMK SLP220 =
2018-12-16 23:00 METAR CYPD 162300Z AUTO 01004KT 320V030 9SM CLR M03/M05 A3017 RMK SLP224 =
2018-12-16 22:00 METAR CYPD 162200Z AUTO VRB02KT 9SM CLR M02/M04 A3017 RMK SLP226 =
2018-12-16 21:00 METAR CYPD 162100Z AUTO 30007KT 9SM CLR M01/M04 A3017 RMK SLP226 =
2018-12-16 20:00 METAR CYPD 162000Z AUTO 29008KT 9SM CLR M00/M04 A3016 RMK SLP220 =
2018-12-16 19:00 METAR CYPD 161900Z AUTO 28009KT 9SM CLR 01/M04 A3014 RMK SLP215 =
2018-12-16 18:00 METAR CYPD 161800Z AUTO 31006KT 9SM CLR 02/M05 A3013 RMK SLP210 =
2018-12-16 17:00 METAR CYPD 161700Z AUTO 34006KT 260V030 9SM CLR 02/M04 A3014 RMK SLP212 =
2018-12-16 16:36 METAR CYPD 161636Z AUTO 33006KT 290V020 9SM SCT022 02/M04 A3015 RMK SLP216 =
2018-12-16 16:00 METAR CYPD 161600Z AUTO 33010KT 280V360 9SM BKN024 02/M04 A3014 RMK PRESFR
                 SLP214 =
2018-12-16 15:00 METAR CYPD 161500Z AUTO 33005G15KT 290V010 9SM OVC018 01/M03 A3016 RMK SLP219 =
2018-12-16 14:00 METAR CYPD 161400Z AUTO 31009G15KT 9SM SCT011 BKN018 BKN023 01/M02 A3018 RMK
                 SLP226 =
2018-12-16 13:46 METAR CYPD 161346Z AUTO 33007KT 290V010 9SM BKN018 BKN026 00/M02 A3018 RMK
                 SLP226 =
2018-12-16 13:45 METAR CYPD 161345Z AUTO 33008KT 300V010 9SM SCT018 BKN026 00/M02 A3018 RMK
                 SLP226 =
2018-12-16 13:38 METAR CYPD 161338Z AUTO 31007KT 280V350 9SM SCT018 OVC024 01/M02 A3018 RMK
                 SLP227 =
2018-12-16 13:35 METAR CYPD 161335Z AUTO 32006KT 280V350 9SM SCT018 OVC026 01/M02 A3018 RMK
                 SLP226 =
2018-12-16 13:25 METAR CYPD 161325Z AUTO 33006KT 9SM BKN024 00/M02 A3018 RMK SLP228 =
2018-12-16 13:22 METAR CYPD 161322Z AUTO 31006KT 9SM FEW019 BKN026 00/M02 A3019 RMK SLP229 =
2018-12-16 13:21 METAR CYPD 161321Z AUTO 32007KT 9SM BKN024 BKN030 00/M02 A3019 RMK SLP229 =
2018-12-16 13:00 METAR CYPD 161300Z AUTO 32004KT 280V360 9SM CLR 00/M03 A3017 RMK SLP225 =
2018-12-16 12:00 METAR CYPD 161200Z AUTO 31006KT 9SM FEW025 M01/M02 A3015 RMK SLP217 =
2018-12-16 11:34 METAR CYPD 161134Z AUTO 31007KT 9SM SCT010 BKN025 M01/M02 A3016 RMK SLP220 =
2018-12-16 11:00 METAR CYPD 161100Z AUTO 31008KT 9SM BKN012 OVC020 M00/M02 A3016 RMK SLP221 =
2018-12-16 10:32 METAR CYPD 161032Z AUTO 30009KT 9SM SCT019 BKN024 M00/M02 A3017 RMK SLP222 =
2018-12-16 10:00 METAR CYPD 161000Z AUTO 31008KT 9SM CLR M01/M03 A3015 RMK SLP217 =

Support USWX by starting your Amazon purchase here.